PWSweather.com
Personal Weather Stations
Station Observations
KVAGLENALL
West Henrico, Glen Allen, VA 23060-6503

West HenricoGlen Allen, VA 23060-6503

Lat: 37.6554, Lon: -77.5693

Elevation: 273

Station Type: Davis Vantage Pro II

www.glenallenweather.com

High Low Average
Temperature 72.9°F22.7°C 47.4°F8.6°C 58.8°F14.9°C
Dew Point 63.3°F17.4°C 46.7°F8.2°C 55.1°F12.8°C
Winds 10.0 mph 16.1 kmh Calm Calm 4.0 mph S6.4 kmh S
Wind Gusts 14.1 mph22.7 kmh -- 6.0 mph9.7 kmh
Humidity 98% 71% 88%
Pressure 30.28 in1025.4 mb 30.04 in1017.3 mb -
Precipitation 0.00 in0.0 mm - -
Hour Temp Dew Point Humidity Winds Wind Gusts Pressure Precip Precip Rate Daily Precip Total
12:00 AM 48.6°F9.2°C 47.6°F8.7°C 96% 2.0 mph SW3.2 kmh SW 3.0 mph4.8 kmh 30.28 in1025.4 mb 0.00 in0.0 mm 0.00 in0.0 mm 0.00 in0.0 mm
12:15 AM 48.3°F9.1°C 47.3°F8.5°C 96% 3.0 mph SSW4.8 kmh SSW 5.1 mph8.2 kmh 30.27 in1025.1 mb 0.00 in0.0 mm 0.00 in0.0 mm 0.00 in0.0 mm
12:30 AM 47.5°F8.6°C 46.7°F8.2°C 97% 1.0 mph SW1.6 kmh SW 2.0 mph3.2 kmh 30.27 in1025.1 mb 0.00 in0.0 mm 0.00 in0.0 mm 0.00 in0.0 mm
12:45 AM 47.8°F8.8°C 47.0°F8.3°C 97% 2.0 mph SSW3.2 kmh SSW 3.0 mph4.8 kmh 30.25 in1024.4 mb 0.00 in0.0 mm 0.00 in0.0 mm 0.00 in0.0 mm
01:00 AM 47.8°F8.8°C 47.3°F8.5°C 98% 2.0 mph S3.2 kmh S 4.0 mph6.4 kmh 30.25 in1024.4 mb 0.00 in0.0 mm 0.00 in0.0 mm 0.00 in0.0 mm
01:15 AM 47.8°F8.8°C 47.0°F8.3°C 97% 1.0 mph SW1.6 kmh SW 6.1 mph9.8 kmh 30.24 in1024.0 mb 0.00 in0.0 mm 0.00 in0.0 mm 0.00 in0.0 mm
01:30 AM 47.6°F8.7°C 46.8°F8.2°C 97% 2.0 mph SW3.2 kmh SW 3.0 mph4.8 kmh 30.24 in1024.0 mb 0.00 in0.0 mm 0.00 in0.0 mm 0.00 in0.0 mm
01:45 AM 47.4°F8.6°C 46.9°F8.3°C 98% 3.0 mph SSW4.8 kmh SSW 3.0 mph4.8 kmh 30.24 in1024.0 mb 0.00 in0.0 mm 0.00 in0.0 mm 0.00 in0.0 mm
02:00 AM 48.0°F8.9°C 47.5°F8.6°C 98% Calm Calm -- 30.23 in1023.7 mb 0.00 in0.0 mm 0.00 in0.0 mm 0.00 in0.0 mm
02:15 AM 48.7°F9.3°C 48.2°F9.0°C 98% Calm Calm 1.0 mph1.6 kmh 30.23 in1023.7 mb 0.00 in0.0 mm 0.00 in0.0 mm 0.00 in0.0 mm
02:30 AM 49.0°F9.4°C 48.5°F9.2°C 98% 4.0 mph SSW6.4 kmh SSW 5.1 mph8.2 kmh 30.22 in1023.4 mb 0.00 in0.0 mm 0.00 in0.0 mm 0.00 in0.0 mm
02:45 AM 49.0°F9.4°C 48.5°F9.2°C 98% 2.0 mph SW3.2 kmh SW 5.1 mph8.2 kmh 30.22 in1023.4 mb 0.00 in0.0 mm 0.00 in0.0 mm 0.00 in0.0 mm
03:00 AM 49.2°F9.6°C 48.7°F9.3°C 98% 1.0 mph S1.6 kmh S 4.0 mph6.4 kmh 30.21 in1023.0 mb 0.00 in0.0 mm 0.00 in0.0 mm 0.00 in0.0 mm
03:15 AM 49.1°F9.5°C 48.3°F9.1°C 97% 2.0 mph SSW3.2 kmh SSW 3.0 mph4.8 kmh 30.20 in1022.7 mb 0.00 in0.0 mm 0.00 in0.0 mm 0.00 in0.0 mm
03:30 AM 48.9°F9.4°C 48.4°F9.1°C 98% 4.0 mph SSW6.4 kmh SSW 5.1 mph8.2 kmh 30.20 in1022.7 mb 0.00 in0.0 mm 0.00 in0.0 mm 0.00 in0.0 mm
03:45 AM 48.6°F9.2°C 47.8°F8.8°C 97% 3.0 mph SSW4.8 kmh SSW 4.0 mph6.4 kmh 30.19 in1022.4 mb 0.00 in0.0 mm 0.00 in0.0 mm 0.00 in0.0 mm
04:00 AM 48.8°F9.3°C 48.3°F9.1°C 98% 5.0 mph SW8.0 kmh SW 6.1 mph9.8 kmh 30.19 in1022.4 mb 0.00 in0.0 mm 0.00 in0.0 mm 0.00 in0.0 mm
04:15 AM 48.9°F9.4°C 48.4°F9.1°C 98% 2.0 mph S3.2 kmh S 5.1 mph8.2 kmh 30.18 in1022.0 mb 0.00 in0.0 mm 0.00 in0.0 mm 0.00 in0.0 mm
04:30 AM 48.7°F9.3°C 48.2°F9.0°C 98% 2.0 mph SSW3.2 kmh SSW 4.0 mph6.4 kmh 30.18 in1022.0 mb 0.00 in0.0 mm 0.00 in0.0 mm 0.00 in0.0 mm
04:45 AM 48.8°F9.3°C 48.3°F9.1°C 98% 3.0 mph SW4.8 kmh SW 6.1 mph9.8 kmh 30.17 in1021.7 mb 0.00 in0.0 mm 0.00 in0.0 mm 0.00 in0.0 mm
05:00 AM 49.0°F9.4°C 48.5°F9.2°C 98% 5.0 mph SSW8.0 kmh SSW 6.1 mph9.8 kmh 30.18 in1022.0 mb 0.00 in0.0 mm 0.00 in0.0 mm 0.00 in0.0 mm
05:15 AM 49.1°F9.5°C 48.6°F9.2°C 98% 2.0 mph SSW3.2 kmh SSW 6.1 mph9.8 kmh 30.17 in1021.7 mb 0.00 in0.0 mm 0.00 in0.0 mm 0.00 in0.0 mm
05:30 AM 49.2°F9.6°C 48.7°F9.3°C 98% 3.0 mph S4.8 kmh S 7.1 mph11.4 kmh 30.17 in1021.7 mb 0.00 in0.0 mm 0.00 in0.0 mm 0.00 in0.0 mm
05:45 AM 49.1°F9.5°C 48.6°F9.2°C 98% 1.0 mph S1.6 kmh S 2.0 mph3.2 kmh 30.16 in1021.3 mb 0.00 in0.0 mm 0.00 in0.0 mm 0.00 in0.0 mm
06:00 AM 49.2°F9.6°C 48.7°F9.3°C 98% 3.0 mph SW4.8 kmh SW 4.0 mph6.4 kmh 30.17 in1021.7 mb 0.00 in0.0 mm 0.00 in0.0 mm 0.00 in0.0 mm
06:15 AM 49.6°F9.8°C 49.0°F9.4°C 98% Calm Calm 3.0 mph4.8 kmh 30.17 in1021.7 mb 0.00 in0.0 mm 0.00 in0.0 mm 0.00 in0.0 mm
06:30 AM 49.9°F9.9°C 49.3°F9.6°C 98% 3.0 mph SW4.8 kmh SW 5.1 mph8.2 kmh 30.16 in1021.3 mb 0.00 in0.0 mm 0.00 in0.0 mm 0.00 in0.0 mm
06:45 AM 50.2°F10.1°C 49.6°F9.8°C 98% 6.0 mph SW9.7 kmh SW 7.1 mph11.4 kmh 30.16 in1021.3 mb 0.00 in0.0 mm 0.00 in0.0 mm 0.00 in0.0 mm
07:00 AM 50.5°F10.3°C 49.9°F9.9°C 98% 4.0 mph SSW6.4 kmh SSW 8.1 mph13.0 kmh 30.17 in1021.7 mb 0.00 in0.0 mm 0.00 in0.0 mm 0.00 in0.0 mm
07:15 AM 51.1°F10.6°C 50.5°F10.3°C 98% 2.0 mph S3.2 kmh S 6.1 mph9.8 kmh 30.16 in1021.3 mb 0.00 in0.0 mm 0.00 in0.0 mm 0.00 in0.0 mm
07:30 AM 51.6°F10.9°C 51.0°F10.6°C 98% 8.0 mph SW12.9 kmh SW 11.1 mph17.9 kmh 30.17 in1021.7 mb 0.00 in0.0 mm 0.00 in0.0 mm 0.00 in0.0 mm
07:45 AM 52.2°F11.2°C 51.6°F10.9°C 98% 5.0 mph SSW8.0 kmh SSW 10.1 mph16.3 kmh 30.17 in1021.7 mb 0.00 in0.0 mm 0.00 in0.0 mm 0.00 in0.0 mm
08:00 AM 52.6°F11.4°C 52.0°F11.1°C 98% 8.0 mph SW12.9 kmh SW 9.1 mph14.6 kmh 30.17 in1021.7 mb 0.00 in0.0 mm 0.00 in0.0 mm 0.00 in0.0 mm
08:15 AM 53.5°F11.9°C 52.6°F11.4°C 97% 9.0 mph SSW14.5 kmh SSW 10.1 mph16.3 kmh 30.17 in1021.7 mb 0.00 in0.0 mm 0.00 in0.0 mm 0.00 in0.0 mm
08:30 AM 55.2°F12.9°C 54.1°F12.3°C 96% 4.0 mph SW6.4 kmh SW 10.1 mph16.3 kmh 30.17 in1021.7 mb 0.00 in0.0 mm 0.00 in0.0 mm 0.00 in0.0 mm
08:45 AM 55.3°F12.9°C 53.9°F12.2°C 95% 3.0 mph SSW4.8 kmh SSW 6.1 mph9.8 kmh 30.17 in1021.7 mb 0.00 in0.0 mm 0.00 in0.0 mm 0.00 in0.0 mm
09:00 AM 55.8°F13.2°C 54.1°F12.3°C 94% 2.0 mph WSW3.2 kmh WSW 5.1 mph8.2 kmh 30.18 in1022.0 mb 0.00 in0.0 mm 0.00 in0.0 mm 0.00 in0.0 mm
09:15 AM 58.7°F14.8°C 56.1°F13.4°C 91% 9.0 mph SSW14.5 kmh SSW 9.1 mph14.6 kmh 30.17 in1021.7 mb 0.00 in0.0 mm 0.00 in0.0 mm 0.00 in0.0 mm
09:30 AM 59.6°F15.3°C 56.4°F13.6°C 89% 9.0 mph SSW14.5 kmh SSW 9.1 mph14.6 kmh 30.17 in1021.7 mb 0.00 in0.0 mm 0.00 in0.0 mm 0.00 in0.0 mm
09:45 AM 62.1°F16.7°C 57.9°F14.4°C 86% 9.0 mph S14.5 kmh S 9.1 mph14.6 kmh 30.16 in1021.3 mb 0.00 in0.0 mm 0.00 in0.0 mm 0.00 in0.0 mm
10:00 AM 63.7°F17.6°C 58.5°F14.7°C 83% 2.0 mph SW3.2 kmh SW 13.1 mph21.1 kmh 30.15 in1021.0 mb 0.00 in0.0 mm 0.00 in0.0 mm 0.00 in0.0 mm
10:15 AM 66.1°F18.9°C 60.1°F15.6°C 81% 7.0 mph SSW11.3 kmh SSW 12.1 mph19.5 kmh 30.16 in1021.3 mb 0.00 in0.0 mm 0.00 in0.0 mm 0.00 in0.0 mm
10:30 AM 68.1°F20.1°C 61.0°F16.1°C 78% 2.0 mph WSW3.2 kmh WSW 7.1 mph11.4 kmh 30.15 in1021.0 mb 0.00 in0.0 mm 0.00 in0.0 mm 0.00 in0.0 mm
10:45 AM 69.9°F21.1°C 62.0°F16.7°C 76% 7.0 mph SW11.3 kmh SW 12.1 mph19.5 kmh 30.14 in1020.7 mb 0.00 in0.0 mm 0.00 in0.0 mm 0.00 in0.0 mm
11:00 AM 67.5°F19.7°C 60.8°F16.0°C 79% 9.0 mph SW14.5 kmh SW 13.1 mph21.1 kmh 30.14 in1020.7 mb 0.00 in0.0 mm 0.00 in0.0 mm 0.00 in0.0 mm
11:15 AM 67.1°F19.5°C 60.1°F15.6°C 78% 10.0 mph SW16.1 kmh SW 14.1 mph22.7 kmh 30.14 in1020.7 mb 0.00 in0.0 mm 0.00 in0.0 mm 0.00 in0.0 mm
11:30 AM 67.3°F19.6°C 60.6°F15.9°C 79% 7.0 mph SW11.3 kmh SW 7.1 mph11.4 kmh 30.13 in1020.3 mb 0.00 in0.0 mm 0.00 in0.0 mm 0.00 in0.0 mm
11:45 AM 67.4°F19.7°C 60.7°F15.9°C 79% 5.0 mph NW8.0 kmh NW 10.1 mph16.3 kmh 30.13 in1020.3 mb 0.00 in0.0 mm 0.00 in0.0 mm 0.00 in0.0 mm
12:00 PM 68.3°F20.2°C 60.9°F16.1°C 77% 6.0 mph SW9.7 kmh SW 8.1 mph13.0 kmh 30.12 in1020.0 mb 0.00 in0.0 mm 0.00 in0.0 mm 0.00 in0.0 mm
12:15 PM 69.1°F20.6°C 62.0°F16.7°C 78% 3.0 mph WSW4.8 kmh WSW 9.1 mph14.6 kmh 30.11 in1019.6 mb 0.00 in0.0 mm 0.00 in0.0 mm 0.00 in0.0 mm
12:30 PM 70.6°F21.4°C 61.9°F16.6°C 74% 5.0 mph SW8.0 kmh SW 12.1 mph19.5 kmh 30.10 in1019.3 mb 0.00 in0.0 mm 0.00 in0.0 mm 0.00 in0.0 mm
12:45 PM 70.9°F21.6°C 62.2°F16.8°C 74% 6.0 mph SSW9.7 kmh SSW 9.1 mph14.6 kmh 30.09 in1019.0 mb 0.00 in0.0 mm 0.00 in0.0 mm 0.00 in0.0 mm
01:00 PM 70.6°F21.4°C 62.3°F16.8°C 75% 5.0 mph SW8.0 kmh SW 10.1 mph16.3 kmh 30.09 in1019.0 mb 0.00 in0.0 mm 0.00 in0.0 mm 0.00 in0.0 mm
01:15 PM 70.8°F21.6°C 62.1°F16.7°C 74% 4.0 mph WSW6.4 kmh WSW 8.1 mph13.0 kmh 30.08 in1018.6 mb 0.00 in0.0 mm 0.00 in0.0 mm 0.00 in0.0 mm
01:30 PM 71.1°F21.7°C 62.0°F16.7°C 73% 5.0 mph WSW8.0 kmh WSW 11.1 mph17.9 kmh 30.08 in1018.6 mb 0.00 in0.0 mm 0.00 in0.0 mm 0.00 in0.0 mm
01:45 PM 71.1°F21.7°C 62.4°F16.9°C 74% 2.0 mph WSW3.2 kmh WSW 4.0 mph6.4 kmh 30.08 in1018.6 mb 0.00 in0.0 mm 0.00 in0.0 mm 0.00 in0.0 mm
02:00 PM 71.8°F22.1°C 62.7°F17.1°C 73% 5.0 mph WSW8.0 kmh WSW 5.1 mph8.2 kmh 30.07 in1018.3 mb 0.00 in0.0 mm 0.00 in0.0 mm 0.00 in0.0 mm
02:15 PM 71.7°F22.1°C 62.2°F16.8°C 72% 3.0 mph NNW4.8 kmh NNW 4.0 mph6.4 kmh 30.07 in1018.3 mb 0.00 in0.0 mm 0.00 in0.0 mm 0.00 in0.0 mm
02:30 PM 72.2°F22.3°C 62.2°F16.8°C 71% 3.0 mph WSW4.8 kmh WSW 4.0 mph6.4 kmh 30.07 in1018.3 mb 0.00 in0.0 mm 0.00 in0.0 mm 0.00 in0.0 mm
02:45 PM 72.3°F22.4°C 62.3°F16.8°C 71% 6.0 mph SW9.7 kmh SW 6.1 mph9.8 kmh 30.07 in1018.3 mb 0.00 in0.0 mm 0.00 in0.0 mm 0.00 in0.0 mm
03:00 PM 72.9°F22.7°C 63.3°F17.4°C 72% Calm Calm -- 30.07 in1018.3 mb 0.00 in0.0 mm 0.00 in0.0 mm 0.00 in0.0 mm
03:15 PM 72.7°F22.6°C 63.1°F17.3°C 72% Calm Calm 3.0 mph4.8 kmh 30.06 in1017.9 mb 0.00 in0.0 mm 0.00 in0.0 mm 0.00 in0.0 mm
03:30 PM 72.3°F22.4°C 63.1°F17.3°C 73% 3.0 mph W4.8 kmh W 4.0 mph6.4 kmh 30.06 in1017.9 mb 0.00 in0.0 mm 0.00 in0.0 mm 0.00 in0.0 mm
03:45 PM 71.2°F21.8°C 62.1°F16.7°C 73% 4.0 mph N6.4 kmh N 6.1 mph9.8 kmh 30.06 in1017.9 mb 0.00 in0.0 mm 0.00 in0.0 mm 0.00 in0.0 mm
04:00 PM 69.8°F21.0°C 61.9°F16.6°C 76% 5.0 mph N8.0 kmh N 6.1 mph9.8 kmh 30.05 in1017.6 mb 0.00 in0.0 mm 0.00 in0.0 mm 0.00 in0.0 mm
04:15 PM 69.1°F20.6°C 61.6°F16.4°C 77% 1.0 mph NE1.6 kmh NE 2.0 mph3.2 kmh 30.05 in1017.6 mb 0.00 in0.0 mm 0.00 in0.0 mm 0.00 in0.0 mm
04:30 PM 69.2°F20.7°C 61.7°F16.5°C 77% 3.0 mph ESE4.8 kmh ESE 4.0 mph6.4 kmh 30.05 in1017.6 mb 0.00 in0.0 mm 0.00 in0.0 mm 0.00 in0.0 mm
04:45 PM 68.9°F20.5°C 61.4°F16.3°C 77% 2.0 mph NE3.2 kmh NE 6.1 mph9.8 kmh 30.04 in1017.3 mb 0.00 in0.0 mm 0.00 in0.0 mm 0.00 in0.0 mm
05:00 PM 68.4°F20.2°C 61.3°F16.3°C 78% 1.0 mph NE1.6 kmh NE 3.0 mph4.8 kmh 30.04 in1017.3 mb 0.00 in0.0 mm 0.00 in0.0 mm 0.00 in0.0 mm
05:15 PM 67.9°F19.9°C 61.2°F16.2°C 79% 2.0 mph ENE3.2 kmh ENE 3.0 mph4.8 kmh 30.04 in1017.3 mb 0.00 in0.0 mm 0.00 in0.0 mm 0.00 in0.0 mm
05:30 PM 67.5°F19.7°C 61.2°F16.2°C 80% 3.0 mph NE4.8 kmh NE 3.0 mph4.8 kmh 30.05 in1017.6 mb 0.00 in0.0 mm 0.00 in0.0 mm 0.00 in0.0 mm
05:45 PM 67.2°F19.6°C 61.2°F16.2°C 81% 2.0 mph NE3.2 kmh NE 3.0 mph4.8 kmh 30.06 in1017.9 mb 0.00 in0.0 mm 0.00 in0.0 mm 0.00 in0.0 mm
06:00 PM 67.0°F19.4°C 61.0°F16.1°C 81% 2.0 mph NNE3.2 kmh NNE 3.0 mph4.8 kmh 30.06 in1017.9 mb 0.00 in0.0 mm 0.00 in0.0 mm 0.00 in0.0 mm
06:15 PM 66.1°F18.9°C 61.2°F16.2°C 84% 6.0 mph N9.7 kmh N 9.1 mph14.6 kmh 30.07 in1018.3 mb 0.00 in0.0 mm 0.00 in0.0 mm 0.00 in0.0 mm
06:30 PM 65.0°F18.3°C 60.4°F15.8°C 85% 2.0 mph N3.2 kmh N 5.1 mph8.2 kmh 30.08 in1018.6 mb 0.00 in0.0 mm 0.00 in0.0 mm 0.00 in0.0 mm
06:45 PM 64.3°F17.9°C 60.1°F15.6°C 86% 5.0 mph NE8.0 kmh NE 6.1 mph9.8 kmh 30.08 in1018.6 mb 0.00 in0.0 mm 0.00 in0.0 mm 0.00 in0.0 mm
07:00 PM 63.3°F17.4°C 59.1°F15.1°C 86% Calm Calm 10.1 mph16.3 kmh 30.08 in1018.6 mb 0.00 in0.0 mm 0.00 in0.0 mm 0.00 in0.0 mm
07:15 PM 62.1°F16.7°C 58.2°F14.6°C 87% 4.0 mph NE6.4 kmh NE 7.1 mph11.4 kmh 30.09 in1019.0 mb 0.00 in0.0 mm 0.00 in0.0 mm 0.00 in0.0 mm
07:30 PM 61.5°F16.4°C 57.9°F14.4°C 88% 4.0 mph ENE6.4 kmh ENE 9.1 mph14.6 kmh 30.08 in1018.6 mb 0.00 in0.0 mm 0.00 in0.0 mm 0.00 in0.0 mm
07:45 PM 61.0°F16.1°C 57.4°F14.1°C 88% 9.0 mph ENE14.5 kmh ENE 9.1 mph14.6 kmh 30.09 in1019.0 mb 0.00 in0.0 mm 0.00 in0.0 mm 0.00 in0.0 mm
08:00 PM 60.5°F15.8°C 56.9°F13.8°C 88% 3.0 mph N4.8 kmh N 10.1 mph16.3 kmh 30.09 in1019.0 mb 0.00 in0.0 mm 0.00 in0.0 mm 0.00 in0.0 mm
08:15 PM 59.8°F15.4°C 56.2°F13.4°C 88% 5.0 mph E8.0 kmh E 5.1 mph8.2 kmh 30.09 in1019.0 mb 0.00 in0.0 mm 0.00 in0.0 mm 0.00 in0.0 mm
08:30 PM 58.3°F14.6°C 55.1°F12.8°C 89% 4.0 mph NNE6.4 kmh NNE 8.1 mph13.0 kmh 30.09 in1019.0 mb 0.00 in0.0 mm 0.00 in0.0 mm 0.00 in0.0 mm
08:45 PM 57.6°F14.2°C 54.7°F12.6°C 90% 3.0 mph NNE4.8 kmh NNE 7.1 mph11.4 kmh 30.09 in1019.0 mb 0.00 in0.0 mm 0.00 in0.0 mm 0.00 in0.0 mm
09:00 PM 57.0°F13.9°C 54.7°F12.6°C 92% 6.0 mph ENE9.7 kmh ENE 6.1 mph9.8 kmh 30.09 in1019.0 mb 0.02 in0.5 mm 0.03 in0.8 mm 0.02 in0.5 mm
09:15 PM 56.2°F13.4°C 54.2°F12.3°C 93% 4.0 mph NNE6.4 kmh NNE 4.0 mph6.4 kmh 30.09 in1019.0 mb 0.03 in0.8 mm 0.04 in1.0 mm 0.03 in0.8 mm
09:30 PM 55.6°F13.1°C 53.9°F12.2°C 94% 2.0 mph NE3.2 kmh NE 5.1 mph8.2 kmh 30.09 in1019.0 mb 0.03 in0.8 mm 0.00 in0.0 mm 0.03 in0.8 mm
09:45 PM 55.2°F12.9°C 53.5°F11.9°C 94% 1.0 mph NNE1.6 kmh NNE 5.1 mph8.2 kmh 30.10 in1019.3 mb 0.03 in0.8 mm 0.00 in0.0 mm 0.03 in0.8 mm
10:00 PM 54.8°F12.7°C 53.4°F11.9°C 95% 5.0 mph NE8.0 kmh NE 5.1 mph8.2 kmh 30.09 in1019.0 mb 0.01 in0.3 mm 0.00 in0.0 mm 0.03 in0.8 mm
10:15 PM 54.2°F12.3°C 52.8°F11.6°C 95% 6.0 mph N9.7 kmh N 7.1 mph11.4 kmh 30.10 in1019.3 mb 0.01 in0.3 mm 0.00 in0.0 mm 0.03 in0.8 mm
10:30 PM 54.0°F12.2°C 52.6°F11.4°C 95% 8.0 mph ESE12.9 kmh ESE 8.1 mph13.0 kmh 30.09 in1019.0 mb 0.00 in0.0 mm 0.00 in0.0 mm 0.03 in0.8 mm
10:45 PM 53.7°F12.1°C 52.3°F11.3°C 95% 7.0 mph ENE11.3 kmh ENE 9.1 mph14.6 kmh 30.09 in1019.0 mb 0.00 in0.0 mm 0.00 in0.0 mm 0.03 in0.8 mm
11:00 PM 53.5°F11.9°C 52.4°F11.3°C 96% 1.0 mph SE1.6 kmh SE 3.0 mph4.8 kmh 30.08 in1018.6 mb 0.00 in0.0 mm 0.00 in0.0 mm 0.03 in0.8 mm
11:15 PM 53.2°F11.8°C 52.1°F11.2°C 96% 1.0 mph NE1.6 kmh NE 3.0 mph4.8 kmh 30.08 in1018.6 mb 0.00 in0.0 mm 0.00 in0.0 mm 0.03 in0.8 mm
11:30 PM 53.2°F11.8°C 52.1°F11.2°C 96% 3.0 mph E4.8 kmh E 3.0 mph4.8 kmh 30.08 in1018.6 mb 0.00 in0.0 mm 0.00 in0.0 mm 0.03 in0.8 mm
11:45 PM 53.1°F11.7°C 52.0°F11.1°C 96% 3.0 mph NE4.8 kmh NE 5.1 mph8.2 kmh 30.08 in1018.6 mb 0.00 in0.0 mm 0.00 in0.0 mm 0.03 in0.8 mm